Terminal Aerodrome Forecast
Issued by NWS

Home | Current Version | Previous Version | Text Only | Print | Product List | Glossary On
Versions: 1 2 3 4 5 6 7 8 9 10 11 12 13 14 15 16 17 18 19
000
FTUS43 KOAX 270611 CCA
TAFBFF
TAF COR
KBFF 270611Z 2706/2806 12005KT P6SM VCSH OVC040
     FM270900 12010KT 4SM BR OVC015
     FM271800 02008KT P6SM SCT030 BKN050=

USA.gov is the U.S. government's official web portal to all federal, state and local government web resources and services.